Flight Track Log - Related Links

Times and Time Zones

All times are in EDT time to prevent confusion due to time zone crossing. See the UAL139 flight status page for this flight to view local times or setup timezone preferences in your user account.

Time Position Orientation Groundspeed Altitude Reporting Facility
EDT Latitude Longitude Course Direction KTS MPH feet Rate Location/Type
Mon 02:33:51 PM 39.8560 -104.6760 222° Southwest 26 30  Level FlightAware ADS-B
Mon 02:34:07 PM 39.8560 -104.6770 270° West 29 33 531 Level FlightAware ADS-B
Mon 02:34:18 PM 39.8560 -104.6780 270° West 31 36 544 Level FlightAware ADS-B
Mon 02:34:29 PM 39.8560 -104.6790 270° West 31 36 553 Level FlightAware ADS-B
Mon 02:40:00 PM 39.8839 -105.0068 276° West  Level FlightAware Approximate
Mon 02:41:00 PM 39.8962 -105.1664 276° West  Level FlightAware Approximate
Mon 02:42:00 PM 39.9036 -105.3264 276° West  Level FlightAware Approximate
Mon 02:43:00 PM 39.9167 -105.4859 270° West  Level FlightAware Approximate
Mon 02:44:00 PM 39.9333 -105.6445 270° West  Level FlightAware Approximate
Mon 02:45:09 PM 39.8410 -104.7490 271° West 201 231 6,000  Level FlightAware ADS-B
Mon 02:45:25 PM 39.8407 -104.7680 269° West 215 247 6,300 1,273 Climbing FlightAware ADS-B
Mon 02:45:42 PM 39.8402 -104.7920 268° West 237 273 6,700 1,297 Climbing FlightAware ADS-B
Mon 02:46:02 PM 39.8400 -104.8230 270° West 262 302 7,100 1,317 Climbing FlightAware ADS-B
Mon 02:46:23 PM 39.8394 -104.8570 269° West 283 326 7,600 1,946 Climbing FlightAware ADS-B
Mon 02:46:39 PM 39.8389 -104.8860 269° West 290 334 8,300 2,813 Climbing FlightAware ADS-B
Mon 02:46:55 PM 39.8386 -104.9130 269° West 289 333 9,100 2,491 Climbing FlightAware ADS-B
Mon 02:47:32 PM 39.8360 -104.9770 267° West 297 342 10,500 2,235 Climbing FlightAware ADS-B
Mon 02:47:46 PM 39.8345 -105.0020 266° West 299 344 11,000 2,667 Climbing FlightAware ADS-B
Mon 02:48:17 PM 39.8318 -105.0580 266° West 300 345 12,500 2,710 Climbing FlightAware ADS-B
Mon 02:48:48 PM 39.8312 -105.1160 269° West 309 356 13,800 2,506 Climbing FlightAware ADS-B
Mon 02:49:36 PM 39.8239 -105.2050 264° West 316 364 15,800 2,430 Climbing FlightAware ADS-B
Mon 02:50:07 PM 39.8183 -105.2640 263° West 324 373 17,000 2,262 Climbing FlightAware ADS-B
Mon 02:50:37 PM 39.8128 -105.3230 263° West 332 382 18,100 2,100 Climbing FlightAware ADS-B
Mon 02:51:07 PM 39.8073 -105.3840 263° West 337 388 19,100 2,250 Climbing FlightAware ADS-B
Mon 02:51:33 PM 39.8041 -105.4370 266° West 338 389 20,200 2,105 Climbing FlightAware ADS-B
Mon 02:52:04 PM 39.8050 -105.5010 271° West 349 402 21,100 1,479 Climbing FlightAware ADS-B
Mon 02:52:46 PM 39.8019 -105.5900 267° West 362 417 22,000 1,241 Climbing FlightAware ADS-B
Mon 02:53:31 PM 39.7985 -105.6930 268° West 380 437 22,900 1,111 Climbing FlightAware ADS-B
Mon 02:53:40 PM 39.8005 -105.7120 278° West 385 443 23,000 923 Climbing FlightAware ADS-B
Mon 02:54:23 PM 39.8247 -105.8080 288° West 398 458 23,700 1,250 Climbing FlightAware ADS-B
Mon 02:55:16 PM 39.8720 -105.9210 299° West 409 471 25,000 1,562 Climbing FlightAware ADS-B
Mon 02:55:36 PM 39.8916 -105.9650 300° West 404 465 25,600 1,773 Climbing FlightAware ADS-B
Mon 02:56:44 PM 39.9618 -106.1050 303° West 412 474 27,600 1,582 Climbing FlightAware ADS-B
Mon 02:57:26 PM 40.0070 -106.1940 304° West 423 487 28,500 1,300 Climbing FlightAware ADS-B
Mon 02:57:44 PM 40.0264 -106.2330 303° West 426 490 28,900 1,412 Climbing FlightAware ADS-B
Mon 02:58:17 PM 40.0612 -106.3040 303° West 431 496 29,700 1,375 Climbing FlightAware ADS-B
Mon 02:59:20 PM 40.1296 -106.4430 303° West 432 497 31,100 1,263 Climbing FlightAware ADS-B
Mon 02:59:52 PM 40.1647 -106.5150 303° West 444 511 31,700 1,062 Climbing FlightAware ADS-B
Mon 03:01:30 PM 40.2490 -106.6890 302° West 453 521 33,400 800 Climbing FlightAware ADS-B
Mon 03:02:07 PM 40.3080 -106.8120 302° West 458 527 33,500 561 Climbing FlightAware ADS-B
Mon 03:03:17 PM 40.3860 -106.9730 302° West 465 535 34,400 500 Climbing FlightAware ADS-B
Mon 03:03:55 PM 40.4220 -107.0500 302° West 465 535 34,400 1,538 Level FlightAware ADS-B
Mon 03:04:35 PM 40.4810 -107.1720 302° West 462 532 36,400 2,047 Climbing FlightAware ADS-B
Mon 03:05:20 PM 40.5350 -107.2840 302° West 455 524 37,300 1,047 Climbing FlightAware ADS-B
Mon 03:06:01 PM 40.5780 -107.3760 302° West 450 518 37,900 519 Climbing FlightAware ADS-B
Mon 03:06:41 PM 40.6220 -107.4700 302° West 453 521 38,000 73 Climbing FlightAware ADS-B
Mon 03:07:23 PM 40.6690 -107.5690 302° West 454 522 38,000  Level FlightAware ADS-B
Mon 03:08:09 PM 40.7210 -107.6790 302° West 454 522 38,000  Level FlightAware ADS-B
Mon 03:08:54 PM 40.7710 -107.7850 302° West 455 524 38,000  Level FlightAware ADS-B
Mon 03:09:46 PM 40.8250 -107.9010 302° West 457 526 38,000  Level FlightAware ADS-B
Mon 03:10:27 PM 40.8730 -108.0050 301° West 458 527 38,000  Level FlightAware ADS-B
Mon 03:11:04 PM 40.9110 -108.0870 302° West 456 525 38,000  Level FlightAware ADS-B
Mon 03:12:03 PM 40.9690 -108.2150 301° West 457 526 38,000  Level FlightAware ADS-B
Mon 03:12:51 PM 41.0140 -108.3130 301° West 457 526 38,000  Level FlightAware ADS-B
Mon 03:13:29 PM 41.0490 -108.3900 301° West 457 526 38,000  Level FlightAware ADS-B
Mon 03:14:05 PM 41.0820 -108.4640 301° West 457 526 38,000  Level FlightAware ADS-B
Mon 03:14:42 PM 41.1170 -108.5400 301° West 457 526 38,000  Level FlightAware ADS-B
Mon 03:15:31 PM 41.1620 -108.6400 301° West 457 526 38,000  Level FlightAware ADS-B
Mon 03:16:07 PM 41.1950 -108.7140 301° West 457 526 38,000  Level FlightAware ADS-B
Mon 03:16:43 PM 41.2290 -108.7870 302° West 457 526 38,000  Level FlightAware ADS-B
Mon 03:17:29 PM 41.2710 -108.8820 300° West 457 526 38,000  Level FlightAware ADS-B
Mon 03:18:27 PM 41.3250 -109.0010 301° West 457 526 38,000  Level FlightAware ADS-B
Mon 03:19:05 PM 41.3600 -109.0790 301° West 457 526 38,000  Level FlightAware ADS-B
Mon 03:19:53 PM 41.4040 -109.1770 301° West 457 526 38,000  Level FlightAware ADS-B
Mon 03:20:29 PM 41.4380 -109.2510 302° West 457 526 38,000  Level FlightAware ADS-B
Mon 03:21:17 PM 41.4820 -109.3500 301° West 457 526 38,000  Level FlightAware ADS-B
Mon 03:23:01 PM 41.6970 -109.8350 301° West 462 532 38,000  Level FlightAware ADS-B
Mon 03:23:48 PM 41.7400 -109.9340 300° West 462 532 38,000  Level FlightAware ADS-B
Mon 03:24:59 PM 41.8040 -110.0840 300° West 462 532 38,000  Level FlightAware ADS-B
Mon 03:25:36 PM 41.8380 -110.1620 300° West 462 532 38,000  Level FlightAware ADS-B
Mon 03:26:22 PM 41.8800 -110.2590 300° West 462 532 38,000  Level FlightAware ADS-B
Mon 03:27:00 PM 41.9140 -110.3400 299° West 462 532 38,000  Level FlightAware ADS-B
Mon 03:28:22 PM 41.9890 -110.5130 300° West 462 532 38,000  Level FlightAware ADS-B
Mon 03:29:00 PM 42.0230 -110.5930 300° West 462 532 38,000  Level FlightAware ADS-B
Mon 03:29:37 PM 42.1190 -110.8180 300° West 467 537 38,000  Level FlightAware ADS-B
Mon 03:30:21 PM 42.1670 -110.9310 300° West 465 535 38,000  Level FlightAware ADS-B
Mon 03:30:57 PM 42.2000 -111.0120 299° West 465 535 38,000  Level FlightAware ADS-B
Mon 03:31:35 PM 42.2462 -111.1200 300° West 466 536 38,000  Level FlightAware ADS-B
Mon 03:32:05 PM 42.2780 -111.1960 300° West 466 536 38,000  Level FlightAware ADS-B
Mon 03:32:35 PM 42.3098 -111.2720 300° West 465 535 38,000  Level FlightAware ADS-B
Mon 03:33:17 PM 42.3542 -111.3790 299° West 465 535 38,000  Level FlightAware ADS-B
Mon 03:33:55 PM 42.3932 -111.4740 299° West 466 536 38,000  Level FlightAware ADS-B
Mon 03:34:31 PM 42.4318 -111.5670 299° West 467 537 38,000  Level FlightAware ADS-B
Mon 03:35:27 PM 42.4897 -111.7080 299° West 469 540 38,000  Level FlightAware ADS-B
Mon 03:36:24 PM 42.5502 -111.8560 299° West 471 542 38,000  Level FlightAware ADS-B
Mon 03:36:55 PM 42.5823 -111.9350 299° West 473 544 38,000  Level FlightAware ADS-B
Mon 03:37:25 PM 42.6142 -112.0140 299° West 473 544 38,000  Level FlightAware ADS-B
Mon 03:38:46 PM 42.6994 -112.2240 299° West 473 544 38,000  Level FlightAware ADS-B
Mon 03:40:57 PM 42.8340 -112.5620 299° West 470 541 38,000  Level FlightAware ADS-B
Mon 03:41:35 PM 42.8690 -112.6490 299° West 470 541 38,000  Level FlightAware ADS-B
Mon 03:42:37 PM 42.9230 -112.7880 298° West 470 541 38,000  Level FlightAware ADS-B
Mon 03:43:13 PM 42.9540 -112.8680 298° West 470 541 38,000  Level FlightAware ADS-B
Mon 03:43:51 PM 42.9870 -112.9530 298° West 470 541 38,000  Level FlightAware ADS-B
Mon 03:44:05 PM 43.0580 -113.0300 322° Northwest 469 540 38,000  Level FlightAware ADS-B
Mon 03:44:43 PM 43.1045 -113.1240 304° West 470 541 38,000  Level FlightAware ADS-B
Mon 03:45:30 PM 43.1609 -113.2390 304° West 469 540 38,000  Level FlightAware ADS-B
Mon 03:46:44 PM 43.2447 -113.4072 304° West 469 540 38,000  Level Salt Lake Center
Mon 03:47:46 PM 43.3119 -113.5506 303° West 467 537 38,000  Level Salt Lake Center
Mon 03:48:48 PM 43.3925 -113.7144 304° West 466 536 38,000  Level Salt Lake Center
Mon 03:49:50 PM 43.4611 -113.8558 304° West 463 533 38,000  Level Salt Lake Center
Mon 03:50:52 PM 43.5275 -114.0222 299° West 469 540 38,000  Level Salt Lake Center
Mon 03:51:54 PM 43.5828 -114.2067 293° West 466 536 38,000  Level Salt Lake Center
Mon 03:52:56 PM 43.6333 -114.3647 294° West 471 542 38,000  Level Salt Lake Center
Mon 03:53:58 PM 43.6867 -114.5206 295° West 468 539 38,000  Level Salt Lake Center
Mon 03:55:00 PM 43.7694 -114.6864 305° West 470 541 38,000  Level Salt Lake Center
Mon 03:56:02 PM 43.8386 -114.8308 304° West 470 541 38,000  Level Salt Lake Center
Mon 03:57:04 PM 43.9200 -114.9986 304° West 470 541 38,000  Level Salt Lake Center
Mon 03:58:06 PM 43.9892 -115.1433 304° West 470 541 38,000  Level Salt Lake Center
Mon 03:59:08 PM 44.0708 -115.3122 304° West 470 541 38,000  Level Salt Lake Center
Mon 04:00:10 PM 44.1394 -115.4561 304° West 467 537 38,000  Level Salt Lake Center
Mon 04:01:12 PM 44.2197 -115.6244 304° West 465 535 38,000  Level Salt Lake Center
Mon 04:02:14 PM 44.2875 -115.7669 304° West 462 532 38,000  Level Salt Lake Center
Mon 04:03:16 PM 44.3661 -115.9358 303° West 463 533 38,000  Level Salt Lake Center
Mon 04:04:18 PM 44.4261 -116.0636 303° West 467 537 38,000  Level Salt Lake Center
Mon 04:05:20 PM 44.5092 -116.2467 303° West 475 547 38,000  Level Salt Lake Center
Mon 04:06:22 PM 44.5764 -116.3931 303° West 471 542 38,000  Level Salt Lake Center
Mon 04:07:24 PM 44.6553 -116.5644 303° West 468 539 38,000  Level Salt Lake Center
Mon 04:08:08 PM 44.7119 -116.6883 303° West 471 542 38,000  Level Seattle Center
Mon 04:09:09 PM 44.7789 -116.8361 303° West 469 540 38,000  Level Seattle Center
Mon 04:10:10 PM 44.8469 -116.9844 303° West 471 542 38,000  Level Seattle Center
Mon 04:15:43 PM 45.2380 -117.8660 303° West 465 535 38,000  Level FlightAware ADS-B
Mon 04:16:24 PM 45.2790 -117.9620 301° West 465 535 38,000  Level FlightAware ADS-B
Mon 04:17:04 PM 45.3290 -118.0740 302° West 463 533 38,000  Level FlightAware ADS-B
Mon 04:17:51 PM 45.3820 -118.1970 302° West 463 533 38,000  Level FlightAware ADS-B
Mon 04:18:31 PM 45.4270 -118.3020 301° West 463 533 38,000  Level FlightAware ADS-B
Mon 04:19:02 PM 45.4610 -118.3800 302° West 464 534 38,000  Level FlightAware ADS-B
Mon 04:19:47 PM 45.5120 -118.4990 301° West 465 535 38,000  Level FlightAware ADS-B
Mon 04:20:31 PM 45.5610 -118.6130 302° West 464 534 38,000  Level FlightAware ADS-B
Mon 04:21:05 PM 45.5980 -118.7020 301° West 466 536 38,000  Level FlightAware ADS-B
Mon 04:21:49 PM 45.6490 -118.8200 302° West 467 537 38,000  Level FlightAware ADS-B
Mon 04:22:31 PM 45.6960 -118.9300 301° West 469 540 38,000  Level FlightAware ADS-B
Mon 04:23:17 PM 45.7460 -119.0360 304° West 471 542 38,000  Level FlightAware ADS-B
Mon 04:24:03 PM 45.8120 -119.1630 307° West 474 545 38,000  Level FlightAware ADS-B
Mon 04:24:37 PM 45.8550 -119.2510 305° West 473 544 38,000  Level FlightAware ADS-B
Mon 04:25:25 PM 45.9160 -119.3720 306° West 475 547 38,000  Level FlightAware ADS-B
Mon 04:26:05 PM 45.9680 -119.4760 306° West 477 549 38,000  Level FlightAware ADS-B
Mon 04:26:49 PM 46.0230 -119.5880 305° West 476 548 38,000  Level FlightAware ADS-B
Mon 04:27:33 PM 46.0790 -119.7020 305° West 476 548 38,000  Level FlightAware ADS-B
Mon 04:28:05 PM 46.1190 -119.7840 305° West 474 545 38,000  Level FlightAware ADS-B
Mon 04:28:49 PM 46.1760 -119.8990 306° West 475 547 38,000  Level FlightAware ADS-B
Mon 04:29:33 PM 46.2310 -120.0120 305° West 472 543 38,000  Level FlightAware ADS-B
Mon 04:30:07 PM 46.2740 -120.1000 305° West 471 542 38,000  Level FlightAware ADS-B
Mon 04:30:25 PM 46.2959 -120.1460 305° West 472 543 38,000  Level FlightAware ADS-B
Mon 04:30:57 PM 46.3359 -120.2280 305° West 472 543 38,000  Level FlightAware ADS-B
Mon 04:31:28 PM 46.3742 -120.3080 305° West 472 543 38,000  Level FlightAware ADS-B
Mon 04:31:59 PM 46.4128 -120.3880 305° West 472 543 38,000  Level FlightAware ADS-B
Mon 04:32:29 PM 46.4503 -120.4660 305° West 474 545 38,000  Level FlightAware ADS-B
Mon 04:33:20 PM 46.5142 -120.6000 305° West 476 548 38,000  Level FlightAware ADS-B
Mon 04:33:50 PM 46.5522 -120.6800 305° West 476 548 38,000  Level FlightAware ADS-B
Mon 04:34:23 PM 46.5930 -120.7660 305° West 475 547 38,000  Level FlightAware ADS-B
Mon 04:34:53 PM 46.6305 -120.8450 305° West 475 547 38,000  Level FlightAware ADS-B
Mon 04:35:24 PM 46.6682 -120.9250 304° West 475 547 38,000  Level FlightAware ADS-B
Mon 04:35:54 PM 46.7058 -121.0050 304° West 474 545 38,000  Level FlightAware ADS-B
Mon 04:36:24 PM 46.7428 -121.0840 304° West 476 548 38,000  Level FlightAware ADS-B
Mon 04:36:54 PM 46.7804 -121.1640 304° West 476 548 38,000  Level FlightAware ADS-B
Mon 04:37:24 PM 46.8177 -121.2440 304° West 476 548 38,000  Level FlightAware ADS-B
Mon 04:37:55 PM 46.8552 -121.3250 304° West 477 549 38,000  Level FlightAware ADS-B
Mon 04:38:25 PM 46.8920 -121.4040 304° West 477 549 38,000  Level FlightAware ADS-B
Mon 04:38:55 PM 46.9296 -121.4850 304° West 476 548 38,000  Level FlightAware ADS-B
Mon 04:39:26 PM 46.9668 -121.5660 304° West 475 547 38,000  Level FlightAware ADS-B
Mon 04:39:56 PM 47.0037 -121.6470 304° West 476 548 38,000  Level FlightAware ADS-B
Mon 04:40:26 PM 47.0406 -121.7270 304° West 478 550 38,000  Level FlightAware ADS-B
Mon 04:40:56 PM 47.0781 -121.8090 304° West 480 552 38,000  Level FlightAware ADS-B
Mon 04:41:27 PM 47.1155 -121.8910 304° West 482 555 38,000  Level FlightAware ADS-B
Mon 04:41:57 PM 47.1530 -121.9740 304° West 483 556 38,000  Level FlightAware ADS-B
Mon 04:42:27 PM 47.1900 -122.0550 304° West 486 559 38,000  Level FlightAware ADS-B
Mon 04:42:57 PM 47.2274 -122.1380 304° West 487 560 38,000  Level FlightAware ADS-B
Mon 04:43:29 PM 47.2665 -122.2250 304° West 484 557 38,000  Level FlightAware ADS-B
Mon 04:43:59 PM 47.3038 -122.3080 304° West 485 558 38,000  Level FlightAware ADS-B
Mon 04:44:29 PM 47.3412 -122.3920 303° West 486 559 38,000  Level FlightAware ADS-B
Mon 04:45:00 PM 47.3790 -122.4760 304° West 487 560 38,000  Level FlightAware ADS-B
Mon 04:45:30 PM 47.4159 -122.5590 303° West 487 560 38,000  Level FlightAware ADS-B
Mon 04:46:02 PM 47.4552 -122.6480 303° West 487 560 38,000  Level FlightAware ADS-B
Mon 04:46:32 PM 47.4922 -122.7320 303° West 488 562 38,000  Level FlightAware ADS-B
Mon 04:47:02 PM 47.5294 -122.8160 303° West 489 563 38,000  Level FlightAware ADS-B
Mon 04:47:33 PM 47.5667 -122.9010 303° West 489 563 38,000  Level FlightAware ADS-B
Mon 04:48:03 PM 47.6040 -122.9860 303° West 490 564 38,000  Level FlightAware ADS-B
Mon 04:48:34 PM 47.6426 -123.0750 303° West 492 566 38,000  Level FlightAware ADS-B
Mon 04:49:04 PM 47.6795 -123.1590 303° West 490 564 38,000  Level FlightAware ADS-B
Mon 04:49:35 PM 47.7171 -123.2460 303° West 489 563 38,000  Level FlightAware ADS-B
Mon 04:50:05 PM 47.7540 -123.3320 303° West 489 563 38,000  Level FlightAware ADS-B
Mon 04:50:35 PM 47.7907 -123.4170 303° West 490 564 38,000  Level FlightAware ADS-B
Mon 04:51:05 PM 47.8273 -123.5020 303° West 491 565 38,000  Level FlightAware ADS-B
Mon 04:51:36 PM 47.8640 -123.5880 302° West 491 565 38,000  Level FlightAware ADS-B
Mon 04:52:06 PM 47.9007 -123.6740 303° West 490 564 38,000  Level FlightAware ADS-B
Mon 04:52:37 PM 47.9380 -123.7610 303° West 490 564 38,000  Level FlightAware ADS-B
Mon 04:53:17 PM 47.9866 -123.8760 302° West 491 565 38,000  Level FlightAware ADS-B
Mon 04:53:47 PM 48.0228 -123.9620 302° West 493 567 38,000  Level FlightAware ADS-B
Mon 04:54:17 PM 48.0598 -124.0500 302° West 496 571 38,000  Level FlightAware ADS-B
Mon 04:54:48 PM 48.0969 -124.1380 302° West 496 571 38,000  Level FlightAware ADS-B
Mon 04:55:18 PM 48.1332 -124.2250 302° West 494 568 38,000  Level FlightAware ADS-B
Mon 04:55:49 PM 48.1706 -124.3140 302° West 494 568 38,000  Level FlightAware ADS-B
Mon 04:56:19 PM 48.2069 -124.4020 302° West 493 567 38,000  Level FlightAware ADS-B
Mon 04:56:49 PM 48.2434 -124.4900 302° West 490 564 38,000  Level FlightAware ADS-B
Mon 04:57:19 PM 48.2789 -124.5750 302° West 491 565 38,000  Level FlightAware ADS-B
Mon 04:58:06 PM 48.3490 -124.6970 311° West 506 582 38,000  Level FlightAware ADS-B
Mon 04:58:51 PM 48.4264 -124.8070 317° Northwest 505 581 38,000  Level FlightAware ADS-B
Mon 04:59:21 PM 48.4768 -124.8800 316° Northwest 504 580 38,000  Level FlightAware ADS-B
Mon 05:00:12 PM 48.5600 -124.9990 317° Northwest 505 581 38,000  Level FlightAware ADS-B
Mon 05:00:54 PM 48.6330 -125.1050 316° Northwest 507 583 38,000  Level FlightAware ADS-B
Mon 05:01:34 PM 48.6990 -125.2010 316° Northwest 504 580 38,000  Level FlightAware ADS-B
Mon 05:02:12 PM 48.7640 -125.2940 317° Northwest 504 580 38,000  Level FlightAware ADS-B
Mon 05:02:48 PM 48.8230 -125.3810 316° Northwest 501 577 38,000  Level FlightAware ADS-B
Mon 05:03:35 PM 48.9000 -125.4940 316° Northwest 495 570 38,000  Level FlightAware ADS-B
Mon 05:04:16 PM 48.9590 -125.5810 316° Northwest 497 572 38,000  Level FlightAware ADS-B
Mon 05:04:51 PM 49.0260 -125.6810 316° Northwest 504 580 38,000  Level FlightAware ADS-B
Mon 05:05:32 PM 49.0960 -125.7850 316° Northwest 504 580 38,000  Level FlightAware ADS-B
Mon 05:06:16 PM 49.1680 -125.8910 316° Northwest 504 580 38,000  Level FlightAware ADS-B
Mon 05:06:56 PM 49.2340 -125.9910 315° West 504 580 38,000  Level FlightAware ADS-B
Mon 05:07:39 PM 49.3060 -126.0990 316° Northwest 508 585 38,000  Level FlightAware ADS-B
Mon 05:08:20 PM 49.3760 -126.2050 315° West 512 589 38,000  Level FlightAware ADS-B
Mon 05:09:03 PM 49.4490 -126.3140 316° Northwest 519 597 38,000  Level FlightAware ADS-B
Mon 05:09:42 PM 49.5170 -126.4180 315° West 519 597 38,000  Level FlightAware ADS-B
Mon 05:10:22 PM 49.5830 -126.5190 315° West 519 597 38,000  Level FlightAware ADS-B
Mon 05:11:02 PM 49.6510 -126.6230 315° West 517 595 38,000  Level FlightAware ADS-B
Mon 05:11:44 PM 49.7230 -126.7340 315° West 516 594 38,000  Level FlightAware ADS-B
Mon 05:12:20 PM 49.7830 -126.8280 315° West 516 594 38,000  Level FlightAware ADS-B
Mon 05:13:06 PM 49.8580 -126.9440 315° West 517 595 38,000  Level FlightAware ADS-B
Mon 05:13:51 PM 49.9340 -127.0630 315° West 519 597 38,000  Level FlightAware ADS-B
Mon 05:14:34 PM 50.0100 -127.1810 315° West 519 597 38,000  Level FlightAware ADS-B
Mon 05:15:14 PM 50.0690 -127.2750 314° West 513 590 38,000  Level FlightAware ADS-B
Mon 05:15:56 PM 50.1440 -127.3930 315° West 519 597 38,000  Level FlightAware ADS-B
Mon 05:16:51 PM 50.2370 -127.5410 315° West 513 590 38,000  Level FlightAware ADS-B
Mon 05:18:01 PM 50.3550 -127.7310 314° West 520 598 38,000  Level FlightAware ADS-B
Mon 05:18:38 PM 50.4160 -127.8290 314° West 520 598 38,000  Level FlightAware ADS-B
Mon 05:19:23 PM 50.4840 -127.9400 314° West 520 598 38,000  Level FlightAware ADS-B
Mon 05:19:59 PM 50.5350 -128.0230 314° West 520 598 38,000  Level FlightAware ADS-B
Mon 05:20:37 PM 50.5890 -128.1110 314° West 520 598 38,000  Level FlightAware ADS-B
Mon 05:21:13 PM 50.6410 -128.1940 315° West 520 598 38,000  Level FlightAware ADS-B
Mon 05:22:02 PM 50.7100 -128.3080 314° West 520 598 38,000  Level FlightAware ADS-B
Mon 05:22:39 PM 50.7630 -128.3940 314° West 520 598 38,000  Level FlightAware ADS-B
Mon 05:23:26 PM 50.8290 -128.5040 314° West 520 598 38,000  Level FlightAware ADS-B
Mon 05:24:03 PM 50.8820 -128.5900 314° West 520 598 38,000  Level FlightAware ADS-B
Mon 05:24:51 PM 50.9500 -128.7020 314° West 520 598 38,000  Level FlightAware ADS-B
Mon 05:25:26 PM 51.0000 -128.7840 314° West 520 598 38,000  Level FlightAware ADS-B
Mon 05:26:02 PM 51.0510 -128.8680 314° West 520 598 38,000  Level FlightAware ADS-B
Mon 05:26:50 PM 51.1190 -128.9800 314° West 520 598 38,000  Level FlightAware ADS-B
Mon 05:27:27 PM 51.1720 -129.0670 314° West 520 598 38,000  Level FlightAware ADS-B
Mon 05:28:04 PM 51.2240 -129.1540 314° West 520 598 38,000  Level FlightAware ADS-B
Mon 05:28:49 PM 51.2880 -129.2600 314° West 520 598 38,000  Level FlightAware ADS-B
Mon 05:29:51 PM 51.5167 -129.7000 314° West 520 598 38,000  Level Vancouver Center
Mon 05:30:51 PM 51.6167 -129.8833 311° West 520 598 38,000  Level Vancouver Center
Mon 05:31:51 PM 51.7167 -130.0500 314° West 520 598 38,000 50 Level Vancouver Center
Mon 05:32:51 PM 51.8000 -130.2000 312° West 520 598 38,100 600 Climbing Vancouver Center
Mon 05:33:51 PM 51.9167 -130.3833 316° Northwest 520 598 39,200 909 Climbing Vancouver Center
Mon 05:34:30 PM 51.9833 -130.4667 322° Northwest 520 598 39,600 300 Climbing Anchorage Center
Mon 05:35:31 PM 52.0667 -130.6333 309° West 520 598 39,700 198 Climbing Anchorage Center
Mon 05:36:31 PM 52.1833 -130.8167 316° Northwest 530 610 40,000 150 Climbing Anchorage Center
Mon 05:37:31 PM 52.2667 -130.9833 309° West 510 587 40,000  Level Anchorage Center
Mon 05:38:32 PM 52.3667 -131.1667 312° West 510 587 40,000  Level Anchorage Center
Mon 05:39:32 PM 52.4667 -131.3333 315° West 510 587 40,000  Level Anchorage Center
Mon 05:40:33 PM 52.5500 -131.5167 307° West 510 587 40,000  Level Anchorage Center
Mon 05:41:33 PM 52.6500 -131.6833 315° West 510 587 40,000  Level Anchorage Center
Mon 05:42:33 PM 52.7500 -131.8667 312° West 510 587 40,000  Level Anchorage Center
Mon 05:43:33 PM 52.8333 -132.0333 310° West 510 587 40,000  Level Anchorage Center
Mon 05:44:51 PM 52.9500 -132.3167 304° West 510 587 40,000  Level Vancouver Center
Mon 05:45:51 PM 53.0333 -132.4667 313° West 510 587 40,000  Level Vancouver Center
Mon 05:46:51 PM 53.1167 -132.6500 307° West 500 575 40,000  Level Vancouver Center
Mon 05:47:51 PM 53.2333 -132.8500 314° West 500 575 40,000  Level Vancouver Center
Mon 05:48:51 PM 53.3167 -133.0000 313° West 500 575 40,000  Level Vancouver Center
Mon 05:49:51 PM 53.4000 -133.2000 305° West 500 575 40,000  Level Vancouver Center
Mon 05:50:51 PM 53.4833 -133.3500 313° West 500 575 40,000  Level Vancouver Center
Mon 05:51:51 PM 53.5667 -133.5500 305° West 500 575 40,000  Level Vancouver Center
Mon 05:52:36 PM 53.6500 -133.6333 329° Northwest 500 575 40,000  Level Anchorage Center
Mon 05:53:36 PM 53.7333 -133.8000 310° West 500 575 40,000  Level Anchorage Center
Mon 05:54:37 PM 53.8333 -133.9833 313° West 490 564 40,000  Level Anchorage Center
Mon 05:55:37 PM 53.9167 -134.1667 308° West 490 564 40,000  Level Anchorage Center
Mon 05:56:38 PM 54.0000 -134.3500 308° West 490 564 40,000  Level Anchorage Center
Mon 05:57:51 PM 54.1000 -134.6167 303° West 490 564 40,000  Level Vancouver Center
Mon 05:58:51 PM 54.1833 -134.8000 308° West 500 575 40,000  Level Vancouver Center
Mon 05:59:51 PM 54.2833 -134.9667 316° Northwest 490 564 40,000  Level Vancouver Center
Mon 06:00:39 PM 54.3500 -135.0667 319° Northwest 490 564 40,000  Level Anchorage Center
Mon 06:01:39 PM 54.4333 -135.2333 311° West 480 552 40,000  Level Anchorage Center
Mon 06:02:40 PM 54.5167 -135.4167 308° West 480 552 40,000  Level Anchorage Center
Mon 06:03:40 PM 54.6000 -135.5833 311° West 470 541 40,000  Level Anchorage Center
Mon 06:04:40 PM 54.6833 -135.7667 308° West 470 541 40,000  Level Anchorage Center
Mon 06:05:41 PM 54.7667 -135.9500 308° West 480 552 40,000  Level Anchorage Center
Mon 06:06:41 PM 54.8500 -136.1333 308° West 470 541 40,000  Level Anchorage Center
Mon 06:07:41 PM 54.9333 -136.3000 311° West 470 541 40,000  Level Anchorage Center
Mon 06:08:51 PM 55.0333 -136.5833 302° West 470 541 40,000  Level Vancouver Center
Mon 06:09:51 PM 55.1167 -136.7667 309° West 470 541 40,000  Level Vancouver Center
Mon 06:10:42 PM 55.1833 -136.8500 324° Northwest 470 541 40,000  Level Anchorage Center
Mon 06:11:43 PM 55.2667 -137.0333 309° West 480 552 40,000  Level Anchorage Center
Mon 06:12:43 PM 55.3333 -137.2167 303° West 480 552 40,000  Level Anchorage Center
Mon 06:13:51 PM 55.4167 -137.4833 299° West 480 552 40,000  Level Vancouver Center
Mon 06:14:43 PM 55.5000 -137.6000 322° Northwest 480 552 40,000  Level Anchorage Center
Mon 06:15:44 PM 55.5833 -137.7833 309° West 470 541 40,000  Level Anchorage Center
Mon 06:16:45 PM 55.6667 -137.9667 309° West 480 552 40,000  Level Anchorage Center
Mon 06:17:45 PM 55.7500 -138.1667 307° West 490 564 40,000  Level Anchorage Center
Mon 06:18:45 PM 55.8333 -138.3500 309° West 480 552 40,000  Level Anchorage Center
Mon 06:19:45 PM 55.9000 -138.5333 303° West 480 552 40,000  Level Anchorage Center
Mon 06:20:45 PM 55.9833 -138.7333 307° West 480 552 40,000  Level Anchorage Center
Mon 06:21:46 PM 56.0667 -138.9333 307° West 480 552 40,000  Level Anchorage Center
Mon 06:22:46 PM 56.1500 -139.1167 309° West 470 541 40,000  Level Anchorage Center
Mon 06:23:47 PM 56.2167 -139.3167 301° West 480 552 40,000  Level Anchorage Center
Mon 06:24:47 PM 56.3000 -139.5167 307° West 490 564 40,000  Level Anchorage Center
Mon 06:25:48 PM 56.3833 -139.7000 309° West 480 552 40,000  Level Anchorage Center
Mon 06:26:48 PM 56.4500 -139.9000 301° West 480 552 40,000  Level Anchorage Center
Mon 06:27:48 PM 56.5333 -140.1167 305° West 490 564 40,000  Level Anchorage Center
Mon 06:28:48 PM 56.5833 -140.3333 293° West 480 552 40,000  Level Anchorage Center
Mon 06:29:49 PM 56.6333 -140.5667 291° West 490 564 40,000  Level Anchorage Center
Mon 06:30:49 PM 56.6833 -140.8000 291° West 480 552 40,000  Level Anchorage Center
Mon 06:31:49 PM 56.7500 -141.0167 299° West 480 552 40,000  Level Anchorage Center
Mon 06:32:50 PM 56.8000 -141.2500 291° West 490 564 40,000  Level Anchorage Center
Mon 06:33:50 PM 56.8500 -141.4833 291° West 480 552 40,000  Level Anchorage Center
Mon 06:34:50 PM 56.9000 -141.7000 293° West 480 552 40,000  Level Anchorage Center
Mon 06:35:50 PM 56.9667 -141.9333 298° West 490 564 40,000  Level Anchorage Center
Mon 06:36:51 PM 57.0167 -142.1500 293° West 480 552 40,000  Level Anchorage Center
Mon 06:37:51 PM 57.0667 -142.3833 292° West 480 552 40,000  Level Anchorage Center
Mon 06:38:51 PM 57.1167 -142.6167 292° West 480 552 40,000  Level Anchorage Center
Mon 06:39:52 PM 57.1667 -142.8333 293° West 470 541 40,000  Level Anchorage Center
Mon 06:40:52 PM 57.2167 -143.0500 293° West 480 552 40,000  Level Anchorage Center
Mon 06:41:52 PM 57.2667 -143.2833 292° West 490 564 40,000  Level Anchorage Center
Mon 06:42:53 PM 57.3167 -143.5167 292° West 480 552 40,000  Level Anchorage Center
Mon 06:43:53 PM 57.3500 -143.7500 285° West 480 552 40,000  Level Anchorage Center
Mon 06:44:53 PM 57.4000 -143.9833 292° West 480 552 40,000  Level Anchorage Center
Mon 06:45:54 PM 57.4500 -144.2167 292° West 480 552 40,000  Level Anchorage Center
Mon 06:46:54 PM 57.5000 -144.4500 292° West 480 552 40,000  Level Anchorage Center
Mon 06:47:55 PM 57.5500 -144.6833 292° West 480 552 40,000  Level Anchorage Center
Mon 06:48:55 PM 57.6000 -144.9167 292° West 480 552 40,000  Level Anchorage Center
Mon 06:49:55 PM 57.6500 -145.1500 292° West 470 541 40,000  Level Anchorage Center
Mon 06:50:56 PM 57.7000 -145.3833 292° West 480 552 40,000  Level Anchorage Center
Mon 06:51:56 PM 57.7333 -145.6167 285° West 470 541 40,000  Level Anchorage Center
Mon 06:52:56 PM 57.7833 -145.8500 292° West 480 552 40,000  Level Anchorage Center
Mon 06:53:57 PM 57.8333 -146.1000 291° West 480 552 40,000  Level Anchorage Center
Mon 06:54:57 PM 57.8667 -146.3333 285° West 480 552 40,000  Level Anchorage Center
Mon 06:55:57 PM 57.9167 -146.5667 292° West 480 552 40,000  Level Anchorage Center
Mon 06:56:58 PM 57.9667 -146.8167 291° West 490 564 40,000  Level Anchorage Center
Mon 06:57:58 PM 58.0000 -147.0500 285° West 480 552 40,000  Level Anchorage Center
Mon 06:58:58 PM 58.0500 -147.3000 291° West 480 552 40,000  Level Anchorage Center
Mon 06:59:58 PM 58.1000 -147.5500 291° West 480 552 40,000  Level Anchorage Center
Mon 07:00:59 PM 58.1333 -147.7833 285° West 480 552 40,000  Level Anchorage Center
Mon 07:06:00 PM 58.3580 -149.0860 285° West 498 573 40,000  Level FlightAware ADS-B
Mon 07:06:49 PM 58.3840 -149.2620 286° West 498 573 40,000  Level FlightAware ADS-B
Mon 07:07:27 PM 58.4050 -149.3980 286° West 498 573 40,000  Level FlightAware ADS-B
Mon 07:08:10 PM 58.4440 -149.6350 288° West 497 572 40,000  Level FlightAware ADS-B
Mon 07:08:52 PM 58.4710 -149.8080 287° West 492 566 40,000  Level FlightAware ADS-B
Mon 07:09:48 PM 58.5030 -150.0210 286° West 491 565 40,000  Level FlightAware ADS-B
Mon 07:10:24 PM 58.5220 -150.1490 286° West 491 565 40,000  Level FlightAware ADS-B
Mon 07:11:10 PM 58.5470 -150.3130 286° West 491 565 40,000  Level FlightAware ADS-B
Mon 07:11:46 PM 58.5660 -150.4410 286° West 491 565 40,000  Level FlightAware ADS-B
Mon 07:12:34 PM 58.5910 -150.6120 286° West 491 565 40,000  Level FlightAware ADS-B
Mon 07:12:58 PM 58.6040 -150.6970 286° West 491 565 40,000  Level FlightAware ADS-B
Mon 07:13:46 PM 58.6300 -150.8680 286° West 491 565 40,000  Level FlightAware ADS-B
Mon 07:14:23 PM 58.6490 -151.0000 286° West 491 565 40,000  Level FlightAware ADS-B
Mon 07:15:12 PM 58.7610 -151.3750 300° West 496 571 40,000  Level FlightAware ADS-B
Mon 07:16:06 PM 58.8020 -151.6000 289° West 495 570 40,000  Level FlightAware ADS-B
Mon 07:16:50 PM 58.8350 -151.7830 289° West 496 571 40,000  Level FlightAware ADS-B
Mon 07:17:27 PM 58.8580 -151.9160 289° West 497 572 40,000  Level FlightAware ADS-B
Mon 07:18:03 PM 58.8810 -152.0440 289° West 497 572 40,000  Level FlightAware ADS-B
Mon 07:18:51 PM 58.9120 -152.2160 289° West 497 572 40,000  Level FlightAware ADS-B
Mon 07:19:27 PM 58.9350 -152.3450 289° West 497 572 40,000  Level FlightAware ADS-B
Mon 07:20:03 PM 58.9580 -152.4740 289° West 497 572 40,000  Level FlightAware ADS-B
Mon 07:20:41 PM 58.9820 -152.6100 289° West 497 572 40,000  Level FlightAware ADS-B
Mon 07:21:30 PM 59.0130 -152.7860 289° West 497 572 40,000  Level FlightAware ADS-B
Mon 07:22:06 PM 59.0640 -153.1080 287° West 496 571 40,000  Level FlightAware ADS-B
Mon 07:22:49 PM 59.0940 -153.2910 288° West 496 571 40,000  Level FlightAware ADS-B
Mon 07:23:30 PM 59.1230 -153.4660 288° West 496 571 40,000  Level FlightAware ADS-B
Mon 07:24:12 PM 59.1470 -153.6180 287° West 496 571 40,000  Level FlightAware ADS-B
Mon 07:24:49 PM 59.1680 -153.7530 287° West 496 571 40,000  Level FlightAware ADS-B
Mon 07:25:30 PM 59.2050 -153.9770 288° West 494 568 40,000  Level FlightAware ADS-B
Mon 07:26:20 PM 59.2340 -154.1590 287° West 494 568 40,000  Level FlightAware ADS-B
Mon 07:27:08 PM 59.2610 -154.3330 287° West 494 568 40,000  Level FlightAware ADS-B
Mon 07:27:44 PM 59.2810 -154.4640 287° West 494 568 40,000  Level FlightAware ADS-B
Mon 07:28:33 PM 59.3090 -154.6420 287° West 494 568 40,000  Level FlightAware ADS-B
Mon 07:29:11 PM 59.3310 -154.7810 287° West 494 568 40,000  Level FlightAware ADS-B
Mon 07:29:47 PM 59.3510 -154.9120 287° West 494 568 40,000  Level FlightAware ADS-B
Mon 07:30:36 PM 59.3790 -155.0910 287° West 494 568 40,000  Level FlightAware ADS-B
Mon 07:31:10 PM 59.3980 -155.2150 287° West 494 568 40,000  Level FlightAware ADS-B
Mon 07:31:58 PM 59.4250 -155.3900 287° West 494 568 40,000  Level FlightAware ADS-B
Mon 07:32:37 PM 59.4470 -155.5330 287° West 494 568 40,000  Level FlightAware ADS-B
Mon 07:33:25 PM 59.4750 -155.7080 288° West 494 568 40,000  Level FlightAware ADS-B
Mon 07:34:02 PM 59.4960 -155.8430 287° West 494 568 40,000  Level FlightAware ADS-B
Mon 07:34:50 PM 59.5230 -156.0190 287° West 494 568 40,000  Level FlightAware ADS-B
Mon 07:35:24 PM 59.5420 -156.1440 287° West 494 568 40,000  Level FlightAware ADS-B
Mon 07:36:11 PM 59.6000 -156.7167 287° West 490 564 40,000  Level Anchorage Center
Mon 07:37:11 PM 59.6333 -156.9833 284° West 490 564 40,000  Level Anchorage Center
Mon 07:38:12 PM 59.6667 -157.2500 284° West 490 564 40,000  Level Anchorage Center
Mon 07:39:12 PM 59.7000 -157.5167 284° West 490 564 40,000  Level Anchorage Center
Mon 07:40:12 PM 59.7333 -157.7833 284° West 490 564 40,000  Level Anchorage Center
Mon 07:41:12 PM 59.7667 -158.0500 284° West 500 575 40,000  Level Anchorage Center
Mon 07:42:13 PM 59.8000 -158.3167 284° West 490 564 40,000  Level Anchorage Center
Mon 07:43:13 PM 59.8333 -158.5833 284° West 490 564 40,000  Level Anchorage Center
Mon 07:44:13 PM 59.8667 -158.8500 284° West 500 575 40,000  Level Anchorage Center
Mon 07:45:14 PM 59.9000 -159.1333 283° West 480 552 40,000  Level Anchorage Center
Mon 07:46:14 PM 59.9333 -159.4000 284° West 490 564 40,000  Level Anchorage Center
Mon 07:47:14 PM 59.9500 -159.6667 277° West 490 564 40,000  Level Anchorage Center
Mon 07:48:15 PM 59.9833 -159.9333 284° West 480 552 40,000  Level Anchorage Center
Mon 07:49:15 PM 59.9833 -160.2167 270° West 500 575 40,000  Level Anchorage Center
Mon 07:50:15 PM 59.9667 -160.4833 263° West 480 552 40,000  Level Anchorage Center
Mon 07:51:15 PM 59.9667 -160.7500 270° West 490 564 40,000  Level Anchorage Center
Mon 07:52:16 PM 59.9500 -161.0167 263° West 490 564 40,000  Level Anchorage Center
Mon 07:53:16 PM 59.9333 -161.2833 263° West 480 552 40,000  Level Anchorage Center
Mon 07:54:17 PM 59.9333 -161.5667 270° West 490 564 40,000  Level Anchorage Center
Mon 07:55:17 PM 59.9167 -161.8333 263° West 490 564 40,000  Level Anchorage Center
Mon 07:56:18 PM 59.9000 -162.1000 263° West 480 552 40,000  Level Anchorage Center
Mon 07:57:18 PM 59.8833 -162.3833 263° West 490 564 40,000  Level Anchorage Center
Mon 07:58:18 PM 59.8667 -162.6500 263° West 480 552 40,000  Level Anchorage Center
Mon 07:59:19 PM 59.8500 -162.9167 263° West 490 564 40,000  Level Anchorage Center
Mon 08:00:19 PM 59.8333 -163.1833 263° West 490 564 40,000  Level Anchorage Center
Mon 08:01:19 PM 59.8167 -163.4500 263° West 490 564 40,000  Level Anchorage Center
Mon 08:02:20 PM 59.8000 -163.7333 263° West 490 564 40,000  Level Anchorage Center
Mon 08:03:20 PM 59.7833 -164.0000 263° West 490 564 40,000  Level Anchorage Center
Mon 08:04:21 PM 59.7667 -164.2667 263° West 490 564 40,000  Level Anchorage Center
Mon 08:05:21 PM 59.7500 -164.5333 263° West 490 564 40,000  Level Anchorage Center
Mon 08:06:21 PM 59.7333 -164.8167 263° West 490 564 40,000  Level Anchorage Center
Mon 08:07:21 PM 59.7167 -165.0833 263° West 490 564 40,000  Level Anchorage Center
Mon 08:08:21 PM 59.7000 -165.3333 263° West 480 552 40,000  Level Anchorage Center
Mon 08:09:22 PM 59.6667 -165.6500 258° West 470 541 40,000  Level Anchorage Center
Mon 08:10:22 PM 59.6500 -165.9000 263° West 480 552 40,000  Level Anchorage Center
Mon 08:11:20 PM 59.6333 -166.1167 261° West 480 552 40,000  Level Anchorage Center
Mon 08:12:20 PM 59.6000 -166.3833 256° West 480 552 40,000  Level Anchorage Center
Mon 08:13:20 PM 59.5833 -166.6500 263° West 480 552 40,000  Level Anchorage Center
Mon 08:15:20 PM 59.5333 -167.1667 259° West 490 564 40,000  Level Anchorage Center
Mon 08:16:20 PM 59.5167 -167.4333 263° West 490 564 40,000  Level Anchorage Center
Mon 08:17:20 PM 59.4833 -167.7000 256° West 480 552 40,000  Level Anchorage Center
Mon 08:18:20 PM 59.4500 -167.9500 255° West 480 552 40,000  Level Anchorage Center
Mon 08:19:20 PM 59.4000 -168.2000 249° West 490 564 40,000  Level Anchorage Center
Mon 08:20:20 PM 59.3667 -168.4500 255° West 480 552 40,000  Level Anchorage Center
Mon 08:21:20 PM 59.3333 -168.7000 255° West 470 541 40,000  Level Anchorage Center
Mon 08:22:21 PM 59.3000 -168.9500 255° West 480 552 40,000  Level Anchorage Center
Mon 08:23:21 PM 59.2500 -169.2167 250° West 490 564 40,000  Level Anchorage Center
Mon 08:24:20 PM 59.2167 -169.4667 255° West 480 552 40,000  Level Anchorage Center
Mon 08:25:21 PM 59.1833 -169.7167 256° West 490 564 40,000  Level Anchorage Center
Mon 08:26:21 PM 59.1333 -169.9667 249° West 480 552 40,000  Level Anchorage Center
Mon 08:27:21 PM 59.1000 -170.2167 256° West 480 552 40,000  Level Anchorage Center
Mon 08:28:21 PM 59.0500 -170.4667 249° West 480 552 40,000  Level Anchorage Center
Mon 08:29:21 PM 59.0167 -170.7167 256° West 480 552 40,000  Level Anchorage Center
Mon 08:30:21 PM 58.9667 -170.9667 249° West 480 552 40,000  Level Anchorage Center
Mon 08:31:21 PM 58.9167 -171.2167 249° West 480 552 40,000  Level Anchorage Center
Mon 08:32:21 PM 58.8833 -171.4500 255° West 480 552 40,000  Level Anchorage Center
Mon 08:33:21 PM 58.8333 -171.7000 249° West 490 564 40,000  Level Anchorage Center
Mon 08:34:22 PM 58.7833 -171.9500 249° West 470 541 40,000  Level Anchorage Center
Mon 08:35:21 PM 58.7500 -172.1833 255° West 470 541 40,000  Level Anchorage Center
Mon 08:36:22 PM 58.7000 -172.4333 249° West 470 541 40,000  Level Anchorage Center
Mon 08:37:21 PM 58.6500 -172.6833 249° West 480 552 40,000  Level Anchorage Center
Mon 08:38:22 PM 58.6167 -172.9167 255° West 480 552 40,000  Level Anchorage Center
Mon 08:39:22 PM 58.5667 -173.1667 249° West 480 552 40,000  Level Anchorage Center
Mon 08:40:22 PM 58.5167 -173.4000 248° West 470 541 40,000  Level Anchorage Center
Mon 08:41:22 PM 58.4667 -173.6333 248° West 470 541 40,000  Level Anchorage Center
Mon 08:42:22 PM 58.4167 -173.8833 249° West 480 552 40,000  Level Anchorage Center
Mon 08:43:22 PM 58.3667 -174.1167 248° West 480 552 40,000  Level Anchorage Center
Mon 08:44:22 PM 58.3167 -174.3500 248° West 480 552 40,000  Level Anchorage Center
Mon 08:45:22 PM 58.2833 -174.5833 255° West 470 541 40,000  Level Anchorage Center
Mon 08:46:22 PM 58.2333 -174.8333 249° West 480 552 40,000  Level Anchorage Center
Mon 08:47:22 PM 58.1667 -175.0667 242° Southwest 480 552 40,000  Level Anchorage Center
Mon 08:48:22 PM 58.1167 -175.3000 248° West 480 552 40,000  Level Anchorage Center
Mon 08:49:23 PM 58.0667 -175.5333 248° West 480 552 40,000  Level Anchorage Center
Mon 08:50:23 PM 58.0167 -175.7667 248° West 470 541 40,000  Level Anchorage Center
Mon 08:51:22 PM 57.9667 -176.0000 248° West 470 541 40,000  Level Anchorage Center
Mon 08:52:23 PM 57.9167 -176.2333 248° West 490 564 40,000  Level Anchorage Center
Mon 08:53:22 PM 57.8667 -176.4667 248° West 480 552 40,000  Level Anchorage Center
Mon 08:54:23 PM 57.8167 -176.6833 247° West 470 541 40,000  Level Anchorage Center
Mon 08:55:23 PM 57.7500 -176.9333 244° Southwest 490 564 40,000  Level Anchorage Center
Mon 08:58:00 PM 57.6672 -177.2950 247° West  Level FlightAware Approximate
Mon 09:04:04 PM 57.2833 -178.8833 245° Southwest 480 552 40,000  Level Anchorage Center
Mon 09:05:00 PM 57.2961 -178.8412 246° West  Level FlightAware Approximate
Mon 09:06:00 PM 57.2415 -179.0594 245° Southwest  Level FlightAware Approximate
Mon 09:07:00 PM 57.1865 -179.2771 245° Southwest  Level FlightAware Approximate
Mon 09:08:00 PM 57.1312 -179.4940 245° Southwest  Level FlightAware Approximate
Mon 09:09:00 PM 57.0755 -179.7103 245° Southwest  Level FlightAware Approximate
Mon 09:09:07 PM 57.0000 180.0000 239° Southwest 482 555 40,000  Level Anchorage Center
Mon 09:10:00 PM 56.9355 179.8042 239° Southwest 480 552 40,000  Level FlightAware Transoceanic
Mon 09:11:00 PM 56.8707 179.6090 239° Southwest 480 552 40,000  Level FlightAware Transoceanic
Mon 09:12:00 PM 56.8056 179.4145 238° Southwest 480 552 40,000  Level FlightAware Transoceanic
Mon 09:13:00 PM 56.7402 179.2207 238° Southwest 480 552 40,000  Level FlightAware Transoceanic
Mon 09:13:41 PM 56.6833 179.0500 238° Southwest 479 551 40,000  Level Anchorage Center
Mon 09:14:00 PM 56.6745 179.0276 238° Southwest 480 552 40,000  Level FlightAware Transoceanic
Mon 09:15:00 PM 56.5763 178.7418 238° Southwest 482 555 40,000  Level FlightAware Transoceanic
Mon 09:16:00 PM 56.5045 178.5348 238° Southwest 482 555 40,000  Level FlightAware Transoceanic
Mon 09:17:00 PM 56.4323 178.3286 238° Southwest 482 555 40,000  Level FlightAware Transoceanic
Mon 09:18:00 PM 56.3598 178.1233 237° Southwest 482 555 40,000  Level FlightAware Transoceanic
Mon 09:19:00 PM 56.2870 177.9187 237° Southwest 482 555 40,000  Level FlightAware Transoceanic
Mon 09:20:00 PM 56.2570 177.8322 237° Southwest 479 551 40,000  Level FlightAware Transoceanic
Mon 09:21:00 PM 56.1847 177.6319 237° Southwest 479 551 40,000  Level FlightAware Transoceanic
Mon 09:22:00 PM 56.1122 177.4324 237° Southwest 479 551 40,000  Level FlightAware Transoceanic
Mon 09:23:00 PM 56.0394 177.2336 237° Southwest 479 551 40,000  Level FlightAware Transoceanic
Mon 09:23:12 PM 56.0000 177.1167 236° Southwest 475 547 40,000  Level Anchorage Center
Mon 09:24:00 PM 55.9662 177.0355 236° Southwest 479 551 40,000  Level FlightAware Transoceanic
Mon 09:24:19 PM 55.9167 176.9167 236° Southwest 480 552 40,000  Level Anchorage Center
Mon 09:25:00 PM 55.8927 176.8382 236° Southwest 479 551 40,000  Level FlightAware Transoceanic
Mon 09:25:20 PM 55.8333 176.7000 236° Southwest 480 552 40,000  Level Anchorage Center
Mon 09:26:00 PM 55.8189 176.6417 236° Southwest 479 551 40,000  Level FlightAware Transoceanic
Mon 09:26:20 PM 55.7667 176.5500 232° Southwest 460 529 40,000  Level Anchorage Center
Mon 09:27:00 PM 55.7448 176.4459 236° Southwest 479 551 40,000  Level FlightAware Transoceanic
Mon 09:27:19 PM 55.7000 176.3167 243° Southwest 480 552 40,000  Level Anchorage Center
Mon 09:28:00 PM 55.6703 176.2508 236° Southwest 479 551 40,000  Level FlightAware Transoceanic
Mon 09:28:19 PM 55.6167 176.1000 236° Southwest 480 552 40,000  Level Anchorage Center
Mon 09:29:20 PM 55.5500 175.9333 235° Southwest 480 552 40,000  Level Anchorage Center
Mon 09:30:19 PM 55.4667 175.7167 236° Southwest 480 552 40,000  Level Anchorage Center
Mon 09:31:20 PM 55.4000 175.5667 232° Southwest 470 541 40,000  Level Anchorage Center
Mon 09:32:20 PM 55.3167 175.3500 236° Southwest 470 541 40,000  Level Anchorage Center
Mon 09:33:20 PM 55.2500 175.1833 235° Southwest 480 552 40,000  Level Anchorage Center
Mon 09:34:20 PM 55.1667 174.9833 234° Southwest 470 541 40,000  Level Anchorage Center
Mon 09:35:20 PM 55.1000 174.8167 235° Southwest 470 541 40,000  Level Anchorage Center
Mon 09:36:20 PM 55.0167 174.6167 234° Southwest 470 541 40,000  Level Anchorage Center
Mon 09:37:20 PM 54.9333 174.4167 234° Southwest 470 541 40,000  Level Anchorage Center
Mon 09:38:20 PM 54.8667 174.2500 235° Southwest 470 541 40,000  Level Anchorage Center
Mon 09:39:20 PM 54.7833 174.0500 234° Southwest 470 541 40,000  Level Anchorage Center
Mon 09:40:20 PM 54.7167 173.8833 235° Southwest 470 541 40,000  Level Anchorage Center
Mon 09:41:20 PM 54.6333 173.6833 234° Southwest 470 541 40,000  Level Anchorage Center
Mon 09:42:20 PM 54.5667 173.5167 235° Southwest 470 541 40,000  Level Anchorage Center
Mon 09:43:21 PM 54.4833 173.3333 232° Southwest 470 541 40,000  Level Anchorage Center
Mon 09:44:21 PM 54.4000 173.1333 234° Southwest 470 541 40,000  Level Anchorage Center
Mon 09:45:21 PM 54.3333 172.9833 233° Southwest 460 529 40,000  Level Anchorage Center
Mon 09:46:20 PM 54.2500 172.7833 235° Southwest 470 541 40,000  Level Anchorage Center
Mon 09:47:20 PM 54.1833 172.6333 233° Southwest 450 518 40,000  Level Anchorage Center
Mon 09:48:21 PM 54.1000 172.4500 232° Southwest 450 518 40,000  Level Anchorage Center
Mon 09:49:21 PM 54.0333 172.3000 233° Southwest 450 518 40,000  Level Anchorage Center
Mon 09:50:21 PM 53.9667 172.1000 241° Southwest 460 529 40,000  Level Anchorage Center
Mon 09:51:21 PM 53.8833 171.9000 235° Southwest 470 541 40,000  Level Anchorage Center
Mon 09:52:21 PM 53.8167 171.7500 233° Southwest 470 541 40,000  Level Anchorage Center
Mon 09:53:21 PM 53.7333 171.5667 233° Southwest 450 518 40,000  Level Anchorage Center
Mon 09:54:21 PM 53.6667 171.4167 233° Southwest 450 518 40,000  Level Anchorage Center
Mon 09:55:21 PM 53.5833 171.2167 235° Southwest 450 518 40,000  Level Anchorage Center
Mon 09:56:21 PM 53.5167 171.0833 230° Southwest 450 518 40,000  Level Anchorage Center
Mon 09:57:21 PM 53.4500 170.8833 241° Southwest 460 529 40,000  Level Anchorage Center
Mon 09:58:21 PM 53.3833 170.7333 233° Southwest 460 529 40,000  Level Anchorage Center
Mon 09:59:21 PM 53.3000 170.5500 233° Southwest 450 518 40,000  Level Anchorage Center
Mon 10:00:22 PM 53.2167 170.3667 233° Southwest 460 529 40,000  Level Anchorage Center
Mon 10:01:22 PM 53.1333 170.2167 227° Southwest 460 529 40,000  Level Anchorage Center
Mon 10:02:21 PM 53.0667 170.0333 239° Southwest 450 518 40,000  Level Anchorage Center
Mon 10:03:22 PM 52.9833 169.8833 227° Southwest 480 552 40,000  Level Anchorage Center
Mon 10:04:21 PM 52.9167 169.6833 241° Southwest 460 529 40,000  Level Anchorage Center
Mon 10:05:22 PM 52.8667 169.5167 244° Southwest 470 541 40,000  Level Anchorage Center
Mon 10:06:22 PM 52.8000 169.3167 241° Southwest 470 541 40,000  Level Anchorage Center
Mon 10:07:22 PM 52.7333 169.1167 241° Southwest 450 518 40,000  Level Anchorage Center
Mon 10:09:22 PM 52.6167 168.7667 241° Southwest 450 518 40,000  Level Anchorage Center
Mon 10:10:22 PM 52.5500 168.6167 234° Southwest 470 541 40,000  Level Anchorage Center
Mon 10:11:22 PM 52.4833 168.4167 241° Southwest 450 518 40,000  Level Anchorage Center
Mon 10:12:22 PM 52.4333 168.2500 244° Southwest 450 518 40,000  Level Anchorage Center
Mon 10:13:22 PM 52.3667 168.0667 239° Southwest 470 541 40,000  Level Anchorage Center
Mon 10:14:22 PM 52.3167 167.9000 244° Southwest 450 518 40,000  Level Anchorage Center
Mon 10:15:22 PM 52.2333 167.7167 233° Southwest 460 529 40,000  Level Anchorage Center
Mon 10:16:22 PM 52.1667 167.5167 242° Southwest 460 529 40,000  Level Anchorage Center
Mon 10:19:00 PM 52.0569 167.2192 239° Southwest  Level FlightAware Approximate
Mon 10:20:52 PM 51.9000 166.7500 238° Southwest 455 524 40,000  Level Anchorage Center
Mon 10:26:00 PM 51.5781 165.9607 239° Southwest  Level FlightAware Approximate
Mon 10:27:00 PM 51.5008 165.7199 238° Southwest 455 524 40,000  Level FlightAware Transoceanic
Mon 10:27:54 PM 51.4333 165.5500 237° Southwest 447 514 40,000  Level Anchorage Center
Mon 10:28:00 PM 51.4333 165.5500 237° Southwest 455 524 40,000  Level FlightAware Transoceanic
Mon 10:29:00 PM 51.3650 165.3818 237° Southwest 455 524 40,000  Level FlightAware Transoceanic
Mon 10:30:00 PM 51.2964 165.2142 237° Southwest 455 524 40,000  Level FlightAware Transoceanic
Mon 10:30:28 PM 51.2500 165.1167 237° Southwest 451 519 40,000  Level Anchorage Center
Mon 10:31:00 PM 51.2276 165.0470 237° Southwest 455 524 40,000  Level FlightAware Transoceanic
Mon 10:32:00 PM 51.1586 164.8803 236° Southwest 455 524 40,000  Level FlightAware Transoceanic
Mon 10:33:00 PM 51.0893 164.7142 236° Southwest 455 524 40,000  Level FlightAware Transoceanic
Mon 10:34:00 PM 51.0197 164.5485 236° Southwest 447 514 40,000  Level FlightAware Transoceanic
Mon 10:35:00 PM 50.9500 164.3833 237° Southwest 447 514 40,000  Level FlightAware Transoceanic
Mon 10:35:03 PM 50.9500 164.3833 237° Southwest 449 517 40,000  Level Anchorage Center
Mon 10:36:00 PM 50.8824 164.2191 237° Southwest 451 519 40,000  Level FlightAware Transoceanic
Mon 10:37:00 PM 50.8145 164.0553 237° Southwest 451 519 40,000  Level FlightAware Transoceanic
Mon 10:38:00 PM 50.7464 163.8921 237° Southwest 451 519 40,000  Level FlightAware Transoceanic
Mon 10:39:00 PM 50.6782 163.7293 236° Southwest 451 519 40,000  Level FlightAware Transoceanic
Mon 10:40:00 PM 50.6096 163.5670 236° Southwest 451 519 40,000  Level FlightAware Transoceanic
Mon 10:40:05 PM 50.6000 163.5333 236° Southwest 448 516 40,000  Level Anchorage Center
Mon 10:41:00 PM 50.5409 163.4051 236° Southwest 449 517 40,000  Level FlightAware Transoceanic
Mon 10:42:00 PM 50.4719 163.2437 236° Southwest 449 517 40,000  Level FlightAware Transoceanic
Mon 10:43:00 PM 50.4027 163.0828 236° Southwest 449 517 40,000  Level FlightAware Transoceanic
Mon 10:44:00 PM 50.3332 162.9224 236° Southwest 449 517 40,000  Level FlightAware Transoceanic
Mon 10:45:00 PM 50.2636 162.7624 236° Southwest 449 517 40,000  Level FlightAware Transoceanic
Mon 10:46:00 PM 50.1876 162.5822 235° Southwest 448 516 40,000  Level FlightAware Transoceanic
Mon 10:47:00 PM 50.1181 162.4253 235° Southwest 448 516 40,000  Level FlightAware Transoceanic
Mon 10:48:00 PM 50.0484 162.2688 235° Southwest 448 516 40,000  Level FlightAware Transoceanic
Mon 10:49:00 PM 49.9785 162.1128 235° Southwest 448 516 40,000  Level FlightAware Transoceanic
Mon 10:49:40 PM 49.9333 162.0000 235° Southwest 442 509 40,000  Level Anchorage Center
Mon 10:50:00 PM 49.9084 161.9572 235° Southwest 448 516 40,000  Level FlightAware Transoceanic
Mon 10:51:00 PM 49.8380 161.8021 235° Southwest 448 516 40,000  Level FlightAware Transoceanic
Mon 10:52:00 PM 49.7675 161.6475 235° Southwest 448 516 40,000  Level FlightAware Transoceanic
Mon 10:53:00 PM 49.6968 161.4933 235° Southwest 448 516 40,000  Level FlightAware Transoceanic
Mon 10:54:00 PM 49.6258 161.3395 234° Southwest 448 516 40,000  Level FlightAware Transoceanic
Mon 10:55:00 PM 49.5547 161.1862 234° Southwest 448 516 40,000  Level FlightAware Transoceanic
Mon 10:55:58 PM 49.4833 161.0333 234° Southwest 440 506 40,000  Level Anchorage Center
Mon 10:56:00 PM 49.4833 161.0333 234° Southwest 442 509 40,000  Level FlightAware Transoceanic
Mon 10:57:00 PM 49.4034 160.8625 234° Southwest 442 509 40,000  Level FlightAware Transoceanic
Mon 10:58:00 PM 49.3232 160.6922 234° Southwest 442 509 40,000  Level FlightAware Transoceanic
Mon 10:59:00 PM 49.2428 160.5225 234° Southwest 442 509 40,000  Level FlightAware Transoceanic
Mon 10:59:17 PM 49.2500 160.5333 234° Southwest 437 503 40,000  Level Anchorage Center
Mon 11:00:00 PM 49.1621 160.3533 234° Southwest 442 509 40,000  Level FlightAware Transoceanic
Mon 11:01:00 PM 49.0812 160.1847 234° Southwest 442 509 40,000  Level FlightAware Transoceanic
Mon 11:02:00 PM 49.0696 160.1607 234° Southwest 440 506 40,000  Level FlightAware Transoceanic
Mon 11:03:00 PM 49.0000 160.0167 233° Southwest 440 506 40,000  Level FlightAware Transoceanic
Mon 11:04:00 PM 48.9235 159.8605 233° Southwest 440 506 40,000  Level FlightAware Transoceanic
Mon 11:05:00 PM 48.8467 159.7049 233° Southwest 437 503 40,000  Level FlightAware Transoceanic
Mon 11:06:00 PM 48.7697 159.5497 233° Southwest 437 503 40,000  Level FlightAware Transoceanic
Mon 11:07:00 PM 48.6926 159.3951 233° Southwest 437 503 40,000  Level FlightAware Transoceanic
Mon 11:08:00 PM 48.6152 159.2408 233° Southwest 437 503 40,000  Level FlightAware Transoceanic
Mon 11:09:00 PM 48.5376 159.0871 233° Southwest 437 503 40,000  Level FlightAware Transoceanic
Mon 11:10:00 PM 48.4599 158.9338 232° Southwest 437 503 40,000  Level FlightAware Transoceanic
Mon 11:11:00 PM 48.3819 158.7810 232° Southwest 437 503 40,000  Level FlightAware Transoceanic
Mon 11:12:00 PM 48.3037 158.6287 232° Southwest 437 503 40,000  Level FlightAware Transoceanic
Mon 11:13:00 PM 48.2253 158.4768 232° Southwest 437 503 40,000  Level FlightAware Transoceanic
Mon 11:14:00 PM 48.1467 158.3254 232° Southwest 437 503 40,000  Level FlightAware Transoceanic
Mon 11:15:00 PM 48.0679 158.1745 232° Southwest 437 503 40,000  Level FlightAware Transoceanic
Mon 11:16:00 PM 47.9889 158.0240 232° Southwest 437 503 40,000  Level FlightAware Transoceanic
Mon 11:17:00 PM 47.9098 157.8740 232° Southwest 437 503 40,000  Level FlightAware Transoceanic
Mon 11:18:00 PM 47.8304 157.7244 232° Southwest 437 503 40,000  Level FlightAware Transoceanic
Mon 11:19:00 PM 47.7508 157.5753 231° Southwest 437 503 40,000  Level FlightAware Transoceanic
Mon 11:20:00 PM 47.6711 157.4267 231° Southwest 437 503 40,000  Level FlightAware Transoceanic
Mon 11:21:00 PM 47.5911 157.2785 231° Southwest 437 503 40,000  Level FlightAware Transoceanic
Mon 11:22:00 PM 47.5110 157.1308 231° Southwest 437 503 40,000  Level FlightAware Transoceanic
Mon 11:23:00 PM 47.4306 156.9835 231° Southwest 437 503 40,000  Level FlightAware Transoceanic
Mon 11:24:00 PM 47.3501 156.8366 231° Southwest 437 503 40,000  Level FlightAware Transoceanic
Mon 11:25:00 PM 47.2694 156.6902 231° Southwest 437 503 40,000  Level FlightAware Transoceanic
Mon 11:26:00 PM 47.1885 156.5443 231° Southwest 437 503 40,000  Level FlightAware Transoceanic
Mon 11:27:00 PM 47.1075 156.3988 231° Southwest 437 503 40,000  Level FlightAware Transoceanic
Mon 11:28:00 PM 47.0262 156.2538 231° Southwest 437 503 40,000  Level FlightAware Transoceanic
Mon 11:29:00 PM 46.9448 156.1091 230° Southwest 437 503 40,000  Level FlightAware Transoceanic
Mon 11:30:00 PM 46.8631 155.9650 230° Southwest 437 503 40,000  Level FlightAware Transoceanic
Mon 11:31:00 PM 46.7813 155.8212 230° Southwest 437 503 40,000  Level FlightAware Transoceanic
Mon 11:32:00 PM 46.6993 155.6779 230° Southwest 437 503 40,000  Level FlightAware Transoceanic
Mon 11:33:00 PM 46.6172 155.5351 230° Southwest 437 503 40,000  Level FlightAware Transoceanic
Mon 11:34:00 PM 46.5349 155.3926 230° Southwest 437 503 40,000  Level FlightAware Transoceanic
Mon 11:35:00 PM 46.4523 155.2506 230° Southwest 437 503 40,000  Level FlightAware Transoceanic
Mon 11:36:00 PM 46.3696 155.1091 230° Southwest 437 503 40,000  Level FlightAware Transoceanic
Mon 11:37:00 PM 46.2868 154.9679 230° Southwest 437 503 40,000  Level FlightAware Transoceanic
Mon 11:38:00 PM 46.2037 154.8272 229° Southwest 437 503 40,000  Level FlightAware Transoceanic
Mon 11:39:00 PM 46.1205 154.6869 229° Southwest 437 503 40,000  Level FlightAware Transoceanic
Mon 11:40:00 PM 46.0372 154.5470 229° Southwest 437 503 40,000  Level FlightAware Transoceanic
Mon 11:41:00 PM 45.9536 154.4076 229° Southwest 437 503 40,000  Level FlightAware Transoceanic
Mon 11:42:00 PM 45.8699 154.2686 229° Southwest 437 503 40,000  Level FlightAware Transoceanic
Mon 11:43:00 PM 45.7860 154.1300 229° Southwest 437 503 40,000  Level FlightAware Transoceanic
Mon 11:44:00 PM 45.7019 153.9918 229° Southwest 437 503 40,000  Level FlightAware Transoceanic
Mon 11:45:00 PM 45.6177 153.8540 229° Southwest 437 503 40,000  Level FlightAware Transoceanic
Mon 11:46:00 PM 45.5236 153.7261 224° Southwest  Level FlightAware Approximate
Mon 11:47:00 PM 45.4295 153.5986 224° Southwest  Level FlightAware Approximate
Mon 11:48:00 PM 45.4360 153.5848 229° Southwest  Level FlightAware Approximate
Mon 11:49:00 PM 45.3504 153.4457 229° Southwest  Level FlightAware Approximate
Mon 11:50:00 PM 45.2646 153.3070 229° Southwest  Level FlightAware Approximate
Mon 11:51:00 PM 45.1787 153.1687 229° Southwest  Level FlightAware Approximate
Mon 11:52:00 PM 45.0926 153.0309 229° Southwest  Level FlightAware Approximate
Mon 11:53:00 PM 45.0064 152.8935 228° Southwest  Level FlightAware Approximate
Mon 11:54:00 PM 44.9190 152.7577 228° Southwest  Level FlightAware Approximate
Mon 11:55:00 PM 44.8314 152.6224 228° Southwest  Level FlightAware Approximate
Mon 11:56:00 PM 44.7436 152.4876 228° Southwest  Level FlightAware Approximate
Mon 11:57:00 PM 44.6557 152.3531 227° Southwest  Level FlightAware Approximate
Mon 11:58:00 PM 44.5676 152.2191 227° Southwest  Level FlightAware Approximate
Mon 11:59:00 PM 44.4793 152.0854 227° Southwest  Level FlightAware Approximate
Tue 12:00:00 AM 44.3909 151.9522 227° Southwest  Level FlightAware Approximate
Tue 12:01:00 AM 44.3023 151.8194 227° Southwest  Level FlightAware Approximate
Tue 12:02:00 AM 44.2136 151.6869 227° Southwest  Level FlightAware Approximate
Tue 12:03:00 AM 44.1247 151.5549 227° Southwest  Level FlightAware Approximate
Tue 12:04:00 AM 44.0357 151.4233 227° Southwest  Level FlightAware Approximate
Tue 12:05:00 AM 43.9465 151.2920 227° Southwest  Level FlightAware Approximate
Tue 12:06:00 AM 43.8572 151.1612 227° Southwest  Level FlightAware Approximate
Tue 12:07:00 AM 43.7677 151.0307 227° Southwest  Level FlightAware Approximate
Tue 12:08:00 AM 43.6781 150.9007 226° Southwest  Level FlightAware Approximate
Tue 12:09:00 AM 43.5884 150.7710 226° Southwest  Level FlightAware Approximate
Tue 12:10:00 AM 43.4985 150.6417 226° Southwest  Level FlightAware Approximate
Tue 12:11:00 AM 43.4084 150.5128 226° Southwest  Level FlightAware Approximate
Tue 12:12:00 AM 43.3182 150.3843 226° Southwest  Level FlightAware Approximate
Tue 12:13:00 AM 43.2278 150.2562 226° Southwest  Level FlightAware Approximate
Tue 12:14:00 AM 43.1373 150.1284 226° Southwest  Level FlightAware Approximate
Tue 12:15:00 AM 43.0467 150.0010 226° Southwest  Level FlightAware Approximate
Tue 12:16:00 AM 42.9560 149.8740 226° Southwest  Level FlightAware Approximate
Tue 12:17:00 AM 42.8650 149.7474 226° Southwest  Level FlightAware Approximate
Tue 12:18:00 AM 42.7740 149.6211 226° Southwest  Level FlightAware Approximate
Tue 12:19:00 AM 42.6828 149.4953 225° Southwest  Level FlightAware Approximate
Tue 12:20:00 AM 42.5915 149.3697 225° Southwest  Level FlightAware Approximate
Tue 12:20:01 AM 42.7110 149.5280 225° Southwest 439 505 40,000  Level FlightAware ADS-B
Tue 12:20:39 AM 42.6660 149.4640 226° Southwest 439 505 40,000  Level FlightAware ADS-B
Tue 12:21:29 AM 42.6060 149.3800 226° Southwest 439 505 40,000  Level FlightAware ADS-B
Tue 12:22:05 AM 42.5630 149.3190 226° Southwest 439 505 40,000  Level FlightAware ADS-B
Tue 12:22:52 AM 42.5060 149.2400 226° Southwest 439 505 40,000  Level FlightAware ADS-B
Tue 12:23:28 AM 42.4630 149.1790 226° Southwest 439 505 40,000  Level FlightAware ADS-B
Tue 12:24:16 AM 42.4050 149.0980 226° Southwest 439 505 40,000  Level FlightAware ADS-B
Tue 12:24:52 AM 42.3620 149.0380 226° Southwest 439 505 40,000  Level FlightAware ADS-B
Tue 12:25:28 AM 42.3190 148.9770 226° Southwest 439 505 40,000  Level FlightAware ADS-B
Tue 12:26:32 AM 42.1450 148.7570 223° Southwest 443 510 40,000  Level FlightAware ADS-B
Tue 12:27:06 AM 42.0900 148.6830 225° Southwest 443 510 40,000  Level FlightAware ADS-B
Tue 12:27:46 AM 42.0300 148.6020 225° Southwest 443 510 40,000  Level FlightAware ADS-B
Tue 12:28:26 AM 41.9700 148.5230 224° Southwest 449 517 40,000  Level FlightAware ADS-B
Tue 12:29:11 AM 41.9040 148.4360 224° Southwest 449 517 40,000  Level FlightAware ADS-B
Tue 12:29:46 AM 41.8530 148.3680 225° Southwest 449 517 40,000  Level FlightAware ADS-B
Tue 12:30:31 AM 41.7860 148.2790 225° Southwest 448 516 40,000  Level FlightAware ADS-B
Tue 12:31:16 AM 41.7190 148.1910 224° Southwest 448 516 40,000  Level FlightAware ADS-B
Tue 12:31:51 AM 41.6680 148.1240 224° Southwest 449 517 40,000  Level FlightAware ADS-B
Tue 12:32:26 AM 41.6160 148.0580 224° Southwest 449 517 40,000  Level FlightAware ADS-B
Tue 12:33:11 AM 41.5500 147.9730 224° Southwest 452 520 40,000  Level FlightAware ADS-B
Tue 12:34:06 AM 41.4660 147.8650 224° Southwest 449 517 40,000  Level FlightAware ADS-B
Tue 12:34:46 AM 41.4030 147.7850 224° Southwest 449 517 40,000  Level FlightAware ADS-B
Tue 12:35:26 AM 41.3440 147.7100 224° Southwest 450 518 40,000  Level FlightAware ADS-B
Tue 12:36:11 AM 41.2800 147.6280 224° Southwest 452 520 40,000  Level FlightAware ADS-B
Tue 12:36:50 AM 41.2300 147.5640 224° Southwest 452 520 40,000  Level FlightAware ADS-B
Tue 12:37:31 AM 41.1510 147.4650 223° Southwest 451 519 40,000  Level FlightAware ADS-B
Tue 12:38:16 AM 41.0820 147.3780 224° Southwest 452 520 40,000  Level FlightAware ADS-B
Tue 12:39:01 AM 41.0150 147.2930 224° Southwest 453 521 40,000  Level FlightAware ADS-B
Tue 12:39:41 AM 40.9510 147.2140 223° Southwest 453 521 40,000  Level FlightAware ADS-B
Tue 12:40:21 AM 40.8900 147.1370 224° Southwest 461 531 40,000  Level FlightAware ADS-B
Tue 12:41:06 AM 40.8200 147.0500 223° Southwest 463 533 40,000  Level FlightAware ADS-B
Tue 12:41:46 AM 40.7580 146.9740 223° Southwest 463 533 40,000  Level FlightAware ADS-B
Tue 12:42:27 AM 40.6950 146.8950 224° Southwest 464 534 40,000  Level FlightAware ADS-B
Tue 12:43:06 AM 40.6320 146.8180 223° Southwest 464 534 40,000  Level FlightAware ADS-B
Tue 12:43:46 AM 40.5720 146.7430 224° Southwest 466 536 40,000  Level FlightAware ADS-B
Tue 12:44:23 AM 40.5230 146.6840 222° Southwest 466 536 40,000  Level FlightAware ADS-B
Tue 12:45:11 AM 40.4590 146.6050 223° Southwest 466 536 40,000  Level FlightAware ADS-B
Tue 12:45:51 AM 40.3720 146.4990 223° Southwest 464 534 40,000  Level FlightAware ADS-B
Tue 12:46:31 AM 40.3080 146.4220 223° Southwest 464 534 40,000  Level FlightAware ADS-B
Tue 12:47:16 AM 40.2470 146.3460 224° Southwest 464 534 40,000  Level FlightAware ADS-B
Tue 12:47:46 AM 40.1900 146.2770 223° Southwest 466 536 40,000  Level FlightAware ADS-B
Tue 12:48:31 AM 40.1160 146.1890 222° Southwest 468 539 40,000  Level FlightAware ADS-B
Tue 12:49:11 AM 40.0520 146.1120 223° Southwest 469 540 40,000  Level FlightAware ADS-B
Tue 12:50:34 AM 39.9250 145.9580 223° Southwest 469 540 40,000  Level FlightAware ADS-B
Tue 12:51:12 AM 39.8740 145.8960 223° Southwest 469 540 40,000  Level FlightAware ADS-B
Tue 12:51:49 AM 39.8240 145.8350 223° Southwest 469 540 40,000  Level FlightAware ADS-B
Tue 12:52:25 AM 39.7750 145.7760 223° Southwest 469 540 40,000  Level FlightAware ADS-B
Tue 12:53:11 AM 39.7130 145.7010 223° Southwest 469 540 40,000  Level FlightAware ADS-B
Tue 12:53:47 AM 39.6650 145.6420 223° Southwest 469 540 40,000  Level FlightAware ADS-B
Tue 12:54:36 AM 39.5980 145.5620 223° Southwest 469 540 40,000  Level FlightAware ADS-B
Tue 12:55:19 AM 39.4600 145.4080 221° Southwest 475 547 40,000  Level FlightAware ADS-B
Tue 12:55:57 AM 39.4080 145.3470 222° Southwest 475 547 40,000  Level FlightAware ADS-B
Tue 12:56:59 AM 39.3030 145.2250 222° Southwest 477 549 40,000  Level FlightAware ADS-B
Tue 12:57:47 AM 39.2360 145.1470 222° Southwest 477 549 40,000  Level FlightAware ADS-B
Tue 12:58:24 AM 39.1540 145.0510 222° Southwest 479 551 40,000  Level FlightAware ADS-B
Tue 12:59:11 AM 39.0870 144.9730 222° Southwest 479 551 40,000  Level FlightAware ADS-B
Tue 12:59:47 AM 39.0360 144.9140 222° Southwest 479 551 40,000  Level FlightAware ADS-B
Tue 01:00:36 AM 38.9680 144.8350 222° Southwest 479 551 40,000  Level FlightAware ADS-B
Tue 01:01:16 AM 38.8790 144.7340 221° Southwest 462 532 40,000  Level FlightAware ADS-B
Tue 01:02:19 AM 38.7740 144.6130 222° Southwest 461 531 40,000  Level FlightAware ADS-B
Tue 01:03:17 AM 38.6850 144.5120 222° Southwest 461 531 40,000  Level FlightAware ADS-B
Tue 01:03:53 AM 38.6370 144.4560 222° Southwest 461 531 40,000  Level FlightAware ADS-B
Tue 01:04:29 AM 38.5580 144.3680 221° Southwest 469 540 40,000  Level FlightAware ADS-B
Tue 01:05:39 AM 38.4450 144.2390 222° Southwest 470 541 40,000  Level FlightAware ADS-B
Tue 01:06:39 AM 38.3500 144.1330 221° Southwest 470 541 40,000  Level FlightAware ADS-B
Tue 01:07:36 AM 38.2600 144.0330 221° Southwest 471 542 40,000  Level FlightAware ADS-B
Tue 01:08:14 AM 38.1930 143.9570 222° Southwest 473 544 40,000  Level FlightAware ADS-B
Tue 01:08:49 AM 38.1370 143.8940 222° Southwest 471 542 40,000  Level FlightAware ADS-B
Tue 01:09:29 AM 38.0680 143.8180 221° Southwest 474 545 40,000  Level FlightAware ADS-B
Tue 01:10:14 AM 37.9930 143.7350 221° Southwest 471 542 40,000  Level FlightAware ADS-B
Tue 01:10:49 AM 37.9350 143.6700 221° Southwest 473 544 40,000  Level FlightAware ADS-B
Tue 01:11:29 AM 37.8800 143.5850 231° Southwest 473 544 40,000  Level FlightAware ADS-B
Tue 01:12:14 AM 37.8310 143.4770 240° Southwest 469 540 40,000  Level FlightAware ADS-B
Tue 01:12:54 AM 37.7870 143.3810 240° Southwest 469 540 40,000  Level FlightAware ADS-B
Tue 01:13:34 AM 37.7440 143.2870 240° Southwest 474 545 40,000  Level FlightAware ADS-B
Tue 01:14:19 AM 37.6950 143.1800 240° Southwest 479 551 40,000  Level FlightAware ADS-B
Tue 01:14:59 AM 37.6490 143.0810 240° Southwest 481 554 40,000  Level FlightAware ADS-B
Tue 01:15:44 AM 37.5980 142.9720 239° Southwest 482 555 40,000  Level FlightAware ADS-B
Tue 01:16:24 AM 37.5530 142.8750 240° Southwest 479 551 40,000  Level FlightAware ADS-B
Tue 01:17:04 AM 37.5070 142.7800 239° Southwest 475 547 40,000  Level FlightAware ADS-B
Tue 01:17:34 AM 37.4670 142.7160 232° Southwest 485 558 40,000  Level FlightAware ADS-B
Tue 01:17:49 AM 37.4390 142.6930 213° Southwest 484 557 40,000  Level FlightAware ADS-B
Tue 01:18:29 AM 37.3500 142.6650 194° South 500 575 40,000  Level FlightAware ADS-B
Tue 01:19:09 AM 37.2580 142.6620 181° South 487 560 40,000  Level FlightAware ADS-B
Tue 01:19:54 AM 37.1590 142.6270 196° South 481 554 40,000  Level FlightAware ADS-B
Tue 01:20:34 AM 37.0740 142.5900 199° South 478 550 40,000 -141 Level FlightAware ADS-B
Tue 01:21:19 AM 36.9790 142.5480 199° South 478 550 39,800 -776 Descending FlightAware ADS-B
Tue 01:21:59 AM 36.8940 142.5100 200° South 481 554 38,900 -1,467 Descending FlightAware ADS-B
Tue 01:22:49 AM 36.7860 142.4630 199° South 494 568 37,600 -1,575 Descending FlightAware ADS-B
Tue 01:23:19 AM 36.7210 142.4350 199° South 497 572 36,800 -1,690 Descending FlightAware ADS-B
Tue 01:24:00 AM 36.6330 142.3970 199° South 498 573 35,600 -1,725 Descending FlightAware ADS-B
Tue 01:24:39 AM 36.5450 142.3580 200° South 509 586 34,500 -1,571 Descending FlightAware ADS-B
Tue 01:25:24 AM 36.4450 142.3140 199° South 494 568 33,400 -1,906 Descending FlightAware ADS-B
Tue 01:26:04 AM 36.3580 142.2770 199° South 495 570 31,800 -2,329 Descending FlightAware ADS-B
Tue 01:26:49 AM 36.2670 142.2370 200° South 474 545 30,100 -2,250 Descending FlightAware ADS-B
Tue 01:27:24 AM 36.1920 142.2050 199° South 460 529 28,800 -2,175 Descending FlightAware ADS-B
Tue 01:28:09 AM 36.1010 142.1660 199° South 430 495 27,200 -2,345 Descending FlightAware ADS-B
Tue 01:28:51 AM 36.0240 142.1330 199° South 423 487 25,400 -2,475 Descending FlightAware ADS-B
Tue 01:29:29 AM 35.9620 142.1060 199° South 415 478 23,900 -2,225 Descending FlightAware ADS-B
Tue 01:30:20 AM 35.8680 142.0660 199° South 395 455 22,100 -1,904 Descending FlightAware ADS-B
Tue 01:31:13 AM 35.8020 141.9810 226° Southwest 378 435 20,600 -1,842 Descending FlightAware ADS-B
Tue 01:32:01 AM 35.7720 141.8900 248° West 364 419 19,000 -2,440 Descending FlightAware ADS-B
Tue 01:32:44 AM 35.7410 141.8070 245° Southwest 357 411 16,900 -2,093 Descending FlightAware ADS-B
Tue 01:33:27 AM 35.7030 141.7360 237° Southwest 350 403 16,000 -1,517 Descending FlightAware ADS-B
Tue 01:34:11 AM 35.6710 141.6610 242° Southwest 367 422 14,700 -1,745 Descending FlightAware ADS-B
Tue 01:34:22 AM 35.6680 141.6310 263° West 370 426 14,400 -1,111 Descending FlightAware ADS-B
Tue 01:35:05 AM 35.6710 141.5420 272° West 368 423 13,700 -1,037 Descending FlightAware ADS-B
Tue 01:35:43 AM 35.6740 141.4650 273° West 367 422 13,000 -987 Descending FlightAware ADS-B
Tue 01:36:24 AM 35.6770 141.3760 272° West 363 418 12,400 -867 Descending FlightAware ADS-B
Tue 01:37:06 AM 35.6800 141.2910 273° West 359 413 11,800 -911 Descending FlightAware ADS-B
Tue 01:37:43 AM 35.6900 141.2170 279° West 353 406 11,200 -759 Descending FlightAware ADS-B
Tue 01:38:25 AM 35.7130 141.1450 291° West 343 395 10,800 -559 Descending FlightAware ADS-B
Tue 01:39:41 AM 35.7750 141.0170 301° West 300 345 10,100 -462 Descending FlightAware ADS-B
Tue 01:40:09 AM 35.7920 140.9820 301° West 280 322 10,000 -421 Descending FlightAware ADS-B
Tue 01:40:38 AM 35.8120 140.9400 300° West 278 320 9,700 -566 Descending FlightAware ADS-B
Tue 01:41:02 AM 35.8240 140.9060 294° West 278 320 9,500 -522 Descending FlightAware ADS-B
Tue 01:41:24 AM 35.8350 140.8740 293° West 278 320 9,300 -490 Descending FlightAware ADS-B
Tue 01:41:51 AM 35.8480 140.8360 293° West 278 320 9,100 -526 Descending FlightAware ADS-B
Tue 01:42:21 AM 35.8620 140.7970 294° West 276 318 8,800 -941 Descending FlightAware ADS-B
Tue 01:42:42 AM 35.8760 140.7590 294° West 279 321 8,300 -1,200 Descending FlightAware ADS-B
Tue 01:43:16 AM 35.8940 140.7070 293° West 269 310 7,700 -960 Descending FlightAware ADS-B
Tue 01:43:32 AM 35.9010 140.6850 291° West 267 307 7,500 -1,091 Descending FlightAware ADS-B
Tue 01:44:00 AM 35.9140 140.6470 293° West 268 308 6,900 -1,179 Descending FlightAware ADS-B
Tue 01:44:28 AM 35.9280 140.6070 293° West 265 305 6,400 -1,050 Descending FlightAware ADS-B
Tue 01:44:40 AM 35.9330 140.5900 290° West 263 303 6,200 -600 Descending FlightAware ADS-B
Tue 01:45:08 AM 35.9470 140.5510 294° West 256 295 6,000 -632 Descending FlightAware ADS-B
Tue 01:45:37 AM 35.9590 140.5130 291° West 257 296 5,600 -923 Descending FlightAware ADS-B
Tue 01:45:47 AM 35.9630 140.4980 288° West 256 295 5,400 -1,317 Descending FlightAware ADS-B
Tue 01:46:18 AM 35.9660 140.4530 275° West 255 293 4,700 -1,333 Descending FlightAware ADS-B
Tue 01:46:32 AM 35.9670 140.4320 273° West 257 296 4,400 -1,171 Descending FlightAware ADS-B
Tue 01:46:59 AM 35.9690 140.3930 274° West 256 295 3,900 -1,263 Descending FlightAware ADS-B
Tue 01:47:29 AM 35.9720 140.3500 275° West 246 283 3,200 -1,000 Descending FlightAware ADS-B
Tue 01:47:47 AM 35.9730 140.3240 273° West 237 273 3,100 -500 Descending FlightAware ADS-B
Tue 01:48:05 AM 35.9720 140.3020 267° West 224 258 2,900 -409 Descending FlightAware ADS-B
Tue 01:48:31 AM 35.9570 140.2770 233° Southwest 202 232 2,800 -140 Descending FlightAware ADS-B
Tue 01:48:48 AM 35.9430 140.2700 202° Southwest 195 224 2,800  Level FlightAware ADS-B
Tue 01:49:11 AM 35.9210 140.2660 188° South 193 222 2,800  Level FlightAware ADS-B
Tue 01:49:39 AM 35.8990 140.2780 156° South 193 222 2,800 -500 Level FlightAware ADS-B
Tue 01:50:11 AM 35.8740 140.2960 150° Southeast 199 229 2,300 -964 Descending FlightAware ADS-B
Tue 01:50:35 AM 35.8540 140.3100 150° Southeast 197 227 1,900 -1,024 Descending FlightAware ADS-B
Tue 01:50:52 AM 35.8420 140.3190 149° Southeast 185 213 1,600 -1,000 Descending FlightAware ADS-B
Tue 01:51:17 AM 35.8240 140.3320 150° Southeast 173 199 1,200 -977 Descending FlightAware ADS-B
Tue 01:51:35 AM 35.8120 140.3410 149° Southeast 158 182 900 -783 Descending FlightAware ADS-B
Tue 01:52:03 AM 35.7950 140.3530 150° Southeast 134 154 600 -667 Descending FlightAware ADS-B
Tue 01:52:29 AM 35.7810 140.3630 150° Southeast 137 158 300 -327 Descending FlightAware ADS-B
Tue 01:52:58 AM 35.7680 140.3730 148° Southeast 138 159 300  Level FlightAware ADS-B
Tue 01:55:00 AM 35.7647 140.3864 253° West  Level Estimated
Tue 01:56:00 AM 35.7647 140.3864 253° West  Level Estimated
Tue 01:57:00 AM 35.7647 140.3864 253° West  Level Estimated
Tue 01:58:00 AM 35.7647 140.3864 253° West  Level Estimated

Login

Don't have an account? Register now (free) for customized features, flight alerts, and more!